Time;durP1;ratioP1;P1;durP2;ratioP2;P2;SDS_P1;SDS_P2;PMS_P1;PMS_P2;Temp;Humidity;BMP_temperature;BMP_pressure;BME280_temperature;BME280_humidity;BME280_pressure;Samples;Min_cycle;Max_cycle;Signal;HPM_P1;HPM_P2
2020/12/08 00:01:39;;;;;;;21.70;12.30;;;;;;;-0.61;70.75;100294.25;1670113;83;25731;-78
2020/12/08 00:04:05;;;;;;;19.27;12.37;;;;;;;-0.63;70.71;100305.88;1668858;84;25797;-78
2020/12/08 00:06:31;;;;;;;21.52;12.10;;;;;;;-0.67;70.76;100301.41;1668946;84;25682;-78
2020/12/08 00:08:58;;;;;;;22.27;13.18;;;;;;;-0.68;70.76;100297.67;1681107;83;25846;-78
2020/12/08 00:11:24;;;;;;;17.62;11.83;;;;;;;-0.69;70.84;100295.53;1674375;84;25635;-79
2020/12/08 00:13:50;;;;;;;21.27;13.03;;;;;;;-0.67;70.78;100294.99;1667026;84;25685;-79
2020/12/08 00:16:17;;;;;;;19.12;10.68;;;;;;;-0.67;70.90;100305.72;1673446;84;26766;-78
2020/12/08 00:18:43;;;;;;;16.35;10.45;;;;;;;-0.70;70.81;100299.03;1667667;84;25966;-78
2020/12/08 00:21:10;;;;;;;21.02;11.55;;;;;;;-0.70;70.73;100306.73;1667093;83;25778;-78
2020/12/08 00:23:36;;;;;;;16.23;10.28;;;;;;;-0.71;70.73;100292.70;1668602;83;26291;-78
2020/12/08 00:26:03;;;;;;;21.70;10.85;;;;;;;-0.71;70.76;100301.68;1674450;83;26231;-78
2020/12/08 00:28:29;;;;;;;21.68;11.20;;;;;;;-0.71;70.67;100301.68;1668016;84;25711;-78
2020/12/08 00:30:56;;;;;;;14.78;9.70;;;;;;;-0.76;70.60;100290.44;1667465;83;25798;-78
2020/12/08 00:33:22;;;;;;;18.55;10.75;;;;;;;-0.79;70.53;100307.30;1670462;84;26278;-78
2020/12/08 00:35:49;;;;;;;16.27;9.98;;;;;;;-0.81;70.59;100298.88;1660727;83;25724;-79
2020/12/08 00:38:15;;;;;;;16.32;9.78;;;;;;;-0.84;70.59;100299.06;1669265;83;26355;-78
2020/12/08 00:40:41;;;;;;;16.55;9.65;;;;;;;-0.84;70.62;100301.63;1649925;84;25637;-79
2020/12/08 00:43:08;;;;;;;19.85;9.90;;;;;;;-0.85;70.54;100302.98;1663016;83;25732;-79
2020/12/08 00:45:34;;;;;;;22.65;11.40;;;;;;;-0.86;70.67;100300.89;1669287;83;26474;-79
2020/12/08 00:48:00;;;;;;;16.52;10.72;;;;;;;-0.86;70.65;100303.45;1668778;83;26361;-79
2020/12/08 00:50:27;;;;;;;16.12;9.58;;;;;;;-0.83;70.73;100307.58;1668853;83;26481;-78
2020/12/08 00:52:55;;;;;;;20.92;10.08;;;;;;;-0.87;70.67;100306.95;1668141;83;26637;-79
2020/12/08 00:55:22;;;;;;;17.90;10.45;;;;;;;-0.87;70.68;100327.47;1668465;84;25771;-79
2020/12/08 00:57:48;;;;;;;15.05;9.50;;;;;;;-0.89;70.66;100308.77;1667444;83;25709;-79
2020/12/08 01:00:16;;;;;;;16.77;9.75;;;;;;;-0.87;70.79;100313.80;1666868;83;26274;-78
2020/12/08 01:02:43;;;;;;;16.27;9.20;;;;;;;-0.85;70.74;100313.25;1693724;82;25816;-79
2020/12/08 01:05:11;;;;;;;15.13;9.00;;;;;;;-0.87;70.74;100320.20;1670145;83;25670;-79
2020/12/08 01:07:40;;;;;;;16.20;9.33;;;;;;;-0.86;70.81;100325.72;1671568;83;25870;-79
2020/12/08 01:10:09;;;;;;;14.25;8.48;;;;;;;-0.89;70.56;100316.47;1645206;85;26621;-79
2020/12/08 01:12:38;;;;;;;15.08;9.28;;;;;;;-0.93;70.72;100318.41;1664947;84;25809;-79
2020/12/08 01:15:06;;;;;;;16.77;8.60;;;;;;;-0.91;70.73;100313.16;1669547;83;25824;-79
2020/12/08 01:17:33;;;;;;;14.33;8.68;;;;;;;-0.92;70.71;100320.05;1668755;83;26593;-79
2020/12/08 01:20:00;;;;;;;15.13;9.33;;;;;;;-0.92;70.64;100323.07;1662287;83;25819;-78
2020/12/08 01:22:27;;;;;;;19.45;10.72;;;;;;;-0.92;70.60;100306.40;1649576;85;25961;-78
2020/12/08 01:24:53;;;;;;;18.62;10.00;;;;;;;-0.94;70.46;100310.33;1672325;83;25923;-78
2020/12/08 01:27:19;;;;;;;16.05;9.95;;;;;;;-0.97;70.38;100311.80;1666057;83;25783;-79
2020/12/08 01:29:46;;;;;;;13.03;8.23;;;;;;;-0.98;70.38;100297.33;1672947;83;26546;-78
2020/12/08 01:32:13;;;;;;;16.02;9.40;;;;;;;-0.97;70.29;100306.67;1669185;83;26365;-78
2020/12/08 01:34:40;;;;;;;14.50;9.28;;;;;;;-0.96;70.38;100313.90;1669846;83;25756;-78
2020/12/08 01:37:08;;;;;;;19.20;9.08;;;;;;;-0.95;70.50;100316.38;1672347;84;25828;-78
2020/12/08 01:39:35;;;;;;;14.47;8.73;;;;;;;-0.93;70.26;100309.86;1672548;84;25744;-78
2020/12/08 01:42:02;;;;;;;15.68;9.40;;;;;;;-0.97;70.29;100310.98;1674313;84;25874;-78
2020/12/08 01:44:30;;;;;;;18.07;9.35;;;;;;;-0.96;70.38;100323.69;1667668;83;25340;-79
2020/12/08 01:46:57;;;;;;;16.90;9.65;;;;;;;-0.93;70.25;100317.12;1650300;84;25730;-79
2020/12/08 01:49:24;;;;;;;15.25;9.55;;;;;;;-0.94;70.02;100311.61;1673603;83;25822;-78
2020/12/08 01:51:50;;;;;;;14.47;9.20;;;;;;;-0.97;70.08;100319.49;1674308;83;25783;-78
2020/12/08 01:54:18;;;;;;;16.45;9.70;;;;;;;-0.97;69.94;100313.55;1672696;83;26684;-78
2020/12/08 01:56:46;;;;;;;15.95;10.30;;;;;;;-0.96;70.13;100308.77;1650253;84;25871;-78
2020/12/08 01:59:12;;;;;;;17.32;10.38;;;;;;;-0.94;70.07;100307.76;1670015;83;26534;-78
2020/12/08 02:01:41;;;;;;;15.75;9.48;;;;;;;-0.94;70.00;100284.67;1663140;83;25758;-78
2020/12/08 02:04:08;;;;;;;16.07;9.55;;;;;;;-0.97;69.88;100286.14;1659947;83;25878;-78
2020/12/08 02:06:35;;;;;;;16.42;8.55;;;;;;;-0.95;69.99;100291.20;1660848;84;25904;-78
2020/12/08 02:09:20;;;;;;;17.62;9.70;;;;;;;-0.95;69.77;100295.86;1675664;83;25658;-78
2020/12/08 02:11:46;;;;;;;16.87;9.00;;;;;;;-0.98;69.86;100308.88;1697293;81;25750;-79
2020/12/08 02:14:13;;;;;;;13.75;9.00;;;;;;;-0.94;69.99;100306.94;1694095;82;25735;-78
2020/12/08 02:16:39;;;;;;;17.32;9.65;;;;;;;-0.95;69.96;100307.41;1660120;83;25709;-78
2020/12/08 02:19:06;;;;;;;15.08;8.63;;;;;;;-0.91;69.96;100305.47;1673083;83;26358;-79
2020/12/08 02:21:34;;;;;;;18.20;8.48;;;;;;;-0.90;69.97;100296.88;1695928;82;25841;-78
2020/12/08 02:24:03;;;;;;;17.33;9.20;;;;;;;-0.92;69.74;100297.42;1673264;83;25806;-78
2020/12/08 02:26:30;;;;;;;15.68;9.18;;;;;;;-0.92;69.70;100302.55;1666106;83;26109;-78
2020/12/08 02:28:57;;;;;;;14.07;8.73;;;;;;;-0.92;69.79;100299.98;1667624;83;26402;-78
2020/12/08 02:31:24;;;;;;;15.60;9.30;;;;;;;-0.90;69.79;100309.23;1672974;83;25934;-78
2020/12/08 02:33:51;;;;;;;14.60;9.08;;;;;;;-0.88;69.75;100305.28;1667442;84;25720;-78
2020/12/08 02:36:18;;;;;;;14.40;8.63;;;;;;;-0.89;69.66;100307.49;1679140;83;25788;-78
2020/12/08 02:38:45;;;;;;;12.07;7.40;;;;;;;-0.87;69.63;100314.64;1659375;84;25767;-78
2020/12/08 02:41:16;;;;;;;16.45;8.93;;;;;;;-0.86;69.63;100320.59;1685690;83;26490;-78
2020/12/08 02:43:42;;;;;;;18.27;9.23;;;;;;;-0.88;69.44;100323.23;1680883;83;26525;-78
2020/12/08 02:46:11;;;;;;;15.58;8.68;;;;;;;-0.90;69.53;100322.06;1673425;83;25896;-78
2020/12/08 02:48:38;;;;;;;15.83;8.88;;;;;;;-0.90;69.52;100322.53;1682425;83;25733;-78
2020/12/08 02:51:06;;;;;;;13.68;8.55;;;;;;;-0.91;69.44;100320.86;1689975;83;25785;-79
2020/12/08 02:53:34;;;;;;;15.53;8.13;;;;;;;-0.92;69.58;100318.77;1676387;83;25912;-79
2020/12/08 02:56:01;;;;;;;12.88;7.50;;;;;;;-0.92;69.67;100320.05;1708370;82;27466;-79
2020/12/08 02:58:28;;;;;;;13.78;7.83;;;;;;;-0.89;69.58;100319.03;1678368;83;25703;-79
2020/12/08 03:01:05;;;;;;;14.65;8.70;;;;;;;-0.87;69.74;100326.19;1670249;83;26512;-78
2020/12/08 03:03:31;;;;;;;14.30;7.47;;;;;;;-0.86;69.73;100309.05;1677398;83;25343;-79
2020/12/08 03:05:58;;;;;;;14.53;8.15;;;;;;;-0.86;69.44;100327.01;1678354;83;25875;-78
2020/12/08 03:08:25;;;;;;;14.13;7.67;;;;;;;-0.88;69.61;100318.11;1677292;83;25706;-79
2020/12/08 03:10:52;;;;;;;15.25;8.58;;;;;;;-0.87;69.56;100315.08;1678886;83;25970;-79
2020/12/08 03:13:19;;;;;;;11.70;7.80;;;;;;;-0.87;69.60;100312.52;1661002;84;25975;-79
2020/12/08 03:15:47;;;;;;;13.80;7.80;;;;;;;-0.87;69.53;100308.23;1679373;83;25723;-79
2020/12/08 03:18:14;;;;;;;15.03;9.15;;;;;;;-0.86;69.60;100298.78;1663204;83;25896;-78
2020/12/08 03:20:40;;;;;;;12.53;7.87;;;;;;;-0.82;69.57;100298.95;1688042;83;26446;-78
2020/12/08 03:23:06;;;;;;;13.50;8.03;;;;;;;-0.83;69.65;100297.31;1682575;83;25679;-79
2020/12/08 03:25:35;;;;;;;11.80;7.15;;;;;;;-0.80;69.67;100291.99;1697517;82;26459;-79
2020/12/08 03:28:02;;;;;;;13.45;7.55;;;;;;;-0.79;69.66;100297.05;1676842;83;25770;-79
2020/12/08 03:30:29;;;;;;;15.10;8.68;;;;;;;-0.76;69.61;100298.13;1670170;83;26776;-79
2020/12/08 03:32:56;;;;;;;14.18;7.75;;;;;;;-0.79;69.52;100300.89;1675831;83;25854;-79
2020/12/08 03:35:23;;;;;;;15.90;7.85;;;;;;;-0.81;69.39;100305.28;1675770;83;26375;-79
2020/12/08 03:37:51;;;;;;;13.53;7.25;;;;;;;-0.80;69.42;100301.79;1676527;83;25742;-79
2020/12/08 03:40:18;;;;;;;11.57;7.75;;;;;;;-0.81;69.41;100310.42;1679928;83;25851;-79
2020/12/08 03:42:44;;;;;;;14.90;7.60;;;;;;;-0.81;69.50;100296.30;1673309;83;25750;-80
2020/12/08 03:45:11;;;;;;;11.38;7.28;;;;;;;-0.80;69.27;100303.54;1664241;83;25870;-79
2020/12/08 03:47:45;;;;;;;12.95;7.53;;;;;;;-0.81;69.35;100300.62;1675298;83;25947;-79
2020/12/08 03:50:12;;;;;;;15.10;7.25;;;;;;;-0.82;69.46;100303.65;1672598;83;26040;-79
2020/12/08 03:52:39;;;;;;;12.80;6.90;;;;;;;-0.80;69.42;100297.13;1667184;83;25784;-79
2020/12/08 03:55:06;;;;;;;11.65;6.58;;;;;;;-0.81;69.47;100297.59;1698787;82;26271;-79
2020/12/08 03:57:33;;;;;;;13.30;7.45;;;;;;;-0.78;69.55;100293.55;1673263;83;26328;-79
2020/12/08 04:00:00;;;;;;;13.62;7.00;;;;;;;-0.74;69.52;100300.59;1670567;83;26046;-79
2020/12/08 04:02:27;;;;;;;11.48;7.20;;;;;;;-0.74;69.31;100296.73;1677788;83;26467;-79
2020/12/08 04:04:53;;;;;;;11.43;6.97;;;;;;;-0.75;69.45;100302.80;1677883;83;25870;-79
2020/12/08 04:07:20;;;;;;;13.05;6.80;;;;;;;-0.75;69.34;100308.75;1676409;83;25847;-79
2020/12/08 04:09:48;;;;;;;11.73;7.28;;;;;;;-0.74;69.44;100307.00;1675367;83;25890;-79
2020/12/08 04:12:14;;;;;;;11.10;6.83;;;;;;;-0.74;69.23;100299.30;1675237;83;26557;-80
2020/12/08 04:14:41;;;;;;;9.98;6.12;;;;;;;-0.73;69.24;100303.54;1672198;83;25880;-79
2020/12/08 04:17:08;;;;;;;11.12;6.53;;;;;;;-0.73;69.31;100303.54;1666315;83;25750;-79
2020/12/08 04:19:34;;;;;;;14.07;7.22;;;;;;;-0.72;69.36;100300.86;1678973;83;25526;-79
2020/12/08 04:22:01;;;;;;;10.03;6.87;;;;;;;-0.73;69.06;100299.23;1672170;83;25939;-79
2020/12/08 04:24:42;;;;;;;9.85;6.95;;;;;;;-0.76;69.13;100294.75;1673145;83;25738;-79
2020/12/08 04:27:09;;;;;;;12.00;6.25;;;;;;;-0.76;69.16;100295.56;1672377;83;25826;-79
2020/12/08 04:29:37;;;;;;;8.93;6.12;;;;;;;-0.77;69.21;100302.06;1680645;83;25809;-79
2020/12/08 04:32:04;;;;;;;11.25;6.33;;;;;;;-0.75;69.21;100304.91;1677067;83;25933;-79
2020/12/08 04:34:32;;;;;;;10.55;6.65;;;;;;;-0.72;69.36;100304.71;1676012;83;27073;-79
2020/12/08 04:36:59;;;;;;;10.88;6.87;;;;;;;-0.68;69.42;100302.80;1673398;83;26566;-78
2020/12/08 04:39:27;;;;;;;10.80;6.67;;;;;;;-0.64;69.31;100309.38;1681786;83;25705;-79
2020/12/08 04:41:57;;;;;;;12.85;7.03;;;;;;;-0.65;69.20;100307.73;1677185;83;26128;-79
2020/12/08 04:44:23;;;;;;;;;;;;;;;-0.63;68.96;100312.77;1683525;83;26400;-78
2020/12/08 04:46:56;;;;;;;11.95;6.28;;;;;;;-0.64;68.92;100315.80;1667185;83;26391;-79
2020/12/08 04:49:24;;;;;;;10.72;6.92;;;;;;;-0.65;69.08;100314.63;1673011;83;25776;-79
2020/12/08 04:51:51;;;;;;;9.25;5.65;;;;;;;-0.63;69.04;100311.48;1665338;83;26288;-79
2020/12/08 04:54:18;;;;;;;11.50;6.53;;;;;;;-0.64;68.94;100313.23;1678720;83;26332;-78
2020/12/08 04:56:49;;;;;;;12.00;6.15;;;;;;;-0.67;68.90;100314.23;1680490;83;25783;-78
2020/12/08 04:59:24;;;;;;;11.25;6.58;;;;;;;-0.68;68.97;100311.32;1684711;83;26379;-78
2020/12/08 05:01:50;;;;;;;15.45;6.55;;;;;;;-0.68;69.02;100316.45;1679181;83;25733;-78
2020/12/08 05:04:24;;;;;;;11.88;6.67;;;;;;;-0.70;68.76;100306.73;1676272;83;25845;-79
2020/12/08 05:07:03;;;;;;;11.35;7.55;;;;;;;-0.72;68.79;100307.28;1667731;84;25712;-78
2020/12/08 05:09:31;;;;;;;10.55;6.45;;;;;;;-0.73;68.88;100308.67;1675463;83;26426;-78
2020/12/08 05:11:59;;;;;;;10.93;5.62;;;;;;;-0.71;68.81;100300.39;1678585;83;25749;-78
2020/12/08 05:14:26;;;;;;;10.32;6.00;;;;;;;-0.74;68.69;100305.29;1677001;83;26376;-79
2020/12/08 05:17:05;;;;;;;8.55;5.97;;;;;;;-0.76;68.65;100309.68;1678830;83;25949;-78
2020/12/08 05:19:31;;;;;;;13.75;6.67;;;;;;;-0.79;68.73;100302.61;1677788;83;26368;-78
2020/12/08 05:21:59;;;;;;;9.93;6.15;;;;;;;-0.77;68.74;100309.30;1678596;83;25923;-78
2020/12/08 05:24:31;;;;;;;10.20;6.10;;;;;;;-0.78;68.80;100310.23;1677863;83;26422;-78
2020/12/08 05:27:04;;;;;;;10.78;6.50;;;;;;;-0.76;68.91;100308.39;1676553;83;25685;-78
2020/12/08 05:29:32;;;;;;;11.05;7.03;;;;;;;-0.74;68.96;100309.57;1678839;83;26400;-78
2020/12/08 05:32:24;;;;;;;12.05;6.50;;;;;;;-0.76;68.84;100316.09;1678672;83;25762;-78
2020/12/08 05:34:53;;;;;;;12.35;6.35;;;;;;;-0.77;68.80;100316.99;1674539;83;25785;-78
2020/12/08 05:37:20;;;;;;;9.03;5.50;;;;;;;-0.77;68.85;100312.33;1667572;83;25830;-78
2020/12/08 05:39:48;;;;;;;8.85;5.97;;;;;;;-0.76;68.58;100317.38;1679140;83;26304;-78
2020/12/08 05:42:20;;;;;;;13.05;7.45;;;;;;;-0.80;68.56;100309.48;1669417;83;25753;-78
2020/12/08 05:44:51;;;;;;;8.50;5.17;;;;;;;-0.79;68.78;100309.88;1669972;83;25834;-79
2020/12/08 05:47:20;;;;;;;10.70;6.78;;;;;;;-0.77;68.74;100308.02;1680748;83;25859;-78
2020/12/08 05:49:59;;;;;;;10.03;6.47;;;;;;;-0.76;68.74;100312.71;1687677;83;25846;-78
2020/12/08 05:52:19;;;;;;;13.45;7.25;;;;;;;-0.77;68.59;100313.61;1685027;81;25755;-78
2020/12/08 05:54:45;;;;;;;11.55;7.00;;;;;;;-0.78;68.82;100310.23;1681033;83;25689;-78
2020/12/08 05:57:15;;;;;;;11.65;7.33;;;;;;;-0.77;68.78;100315.71;1680523;83;26622;-78
2020/12/08 05:59:42;;;;;;;10.55;6.65;;;;;;;-0.80;68.78;100318.47;1677342;83;26558;-78
2020/12/08 06:02:09;;;;;;;10.98;6.70;;;;;;;-0.75;68.82;100322.05;1678954;83;25817;-78
2020/12/08 06:04:44;;;;;;;11.95;7.15;;;;;;;-0.74;68.85;100322.40;1678918;83;25908;-78
2020/12/08 06:07:11;;;;;;;10.28;6.25;;;;;;;-0.72;68.85;100331.66;1681176;83;25917;-78
2020/12/08 06:09:37;;;;;;;9.98;6.25;;;;;;;-0.74;68.80;100332.66;1663286;83;25721;-78
2020/12/08 06:12:15;;;;;;;10.45;6.40;;;;;;;-0.76;68.62;100331.95;1706375;81;25764;-78
2020/12/08 06:14:42;;;;;;;10.68;7.10;;;;;;;-0.77;68.77;100332.39;1683144;83;26545;-78
2020/12/08 06:17:08;;;;;;;13.98;6.67;;;;;;;-0.77;68.71;100332.85;1678476;83;26373;-78
2020/12/08 06:19:36;;;;;;;10.23;6.35;;;;;;;-0.76;68.68;100340.94;1678091;83;26308;-78
2020/12/08 06:22:12;;;;;;;11.22;6.72;;;;;;;-0.77;68.83;100324.69;1678760;83;25719;-78
2020/12/08 06:24:57;;;;;;;9.85;5.55;;;;;;;-0.75;68.88;100336.16;1678786;83;25980;-78
2020/12/08 06:27:24;;;;;;;10.48;6.05;;;;;;;-0.76;68.75;100335.80;1676989;82;25746;-78
2020/12/08 06:29:56;;;;;;;8.63;5.33;;;;;;;-0.77;68.77;100339.27;1679477;83;25747;-78
2020/12/08 06:32:30;;;;;;;11.03;6.45;;;;;;;-0.78;68.90;100337.16;1679038;83;26279;-77
2020/12/08 06:35:13;;;;;;;10.65;7.03;;;;;;;-0.71;69.03;100331.19;1679817;83;25849;-77
2020/12/08 06:37:46;;;;;;;10.45;6.37;;;;;;;-0.71;68.94;100340.17;1668585;83;25288;-78
2020/12/08 06:40:20;;;;;;;9.75;6.15;;;;;;;-0.69;68.95;100338.34;1662790;83;25827;-78
2020/12/08 06:42:48;;;;;;;11.70;6.67;;;;;;;-0.68;68.94;100342.11;1684500;82;25832;-78
2020/12/08 06:45:21;;;;;;;11.05;6.37;;;;;;;-0.69;68.92;100341.73;1684275;83;25622;-78
2020/12/08 06:47:49;;;;;;;10.75;5.87;;;;;;;-0.66;68.96;100345.85;1667886;83;25843;-78
2020/12/08 06:50:27;;;;;;;9.38;5.90;;;;;;;-0.65;68.84;100340.28;1684104;83;25757;-78
2020/12/08 06:52:58;;;;;;;9.63;5.97;;;;;;;-0.67;68.78;100350.17;1685384;83;26382;-78
2020/12/08 06:55:28;;;;;;;11.40;5.95;;;;;;;-0.68;68.77;100336.98;1670574;83;25683;-78
2020/12/08 06:58:05;;;;;;;12.30;6.78;;;;;;;-0.65;68.95;100339.82;1684094;83;25761;-78
2020/12/08 07:00:32;;;;;;;10.28;6.55;;;;;;;-0.62;68.94;100338.34;1679442;83;25803;-78
2020/12/08 07:03:01;;;;;;;12.15;6.78;;;;;;;-0.64;68.81;100344.49;1682393;83;25640;-78
2020/12/08 07:05:30;;;;;;;13.95;6.72;;;;;;;-0.67;68.93;100339.91;1678848;83;26452;-78
2020/12/08 07:08:02;;;;;;;12.70;6.25;;;;;;;-0.68;68.96;100345.96;1679873;83;26341;-78
2020/12/08 07:10:29;;;;;;;8.58;6.12;;;;;;;-0.68;69.06;100340.02;1673304;83;25857;-78
2020/12/08 07:12:56;;;;;;;12.98;7.30;;;;;;;-0.65;69.00;100339.00;1684388;83;25728;-78
2020/12/08 07:15:25;;;;;;;12.70;6.65;;;;;;;-0.68;68.88;100348.53;1669891;83;25714;-78
2020/12/08 07:18:04;;;;;;;12.83;7.63;;;;;;;-0.70;69.04;100346.51;1670943;83;25813;-77
2020/12/08 07:20:31;;;;;;;11.43;6.80;;;;;;;-0.64;69.16;100347.05;1671025;83;25825;-77
2020/12/08 07:23:04;;;;;;;11.80;7.53;;;;;;;-0.62;69.03;100357.59;1677943;83;26220;-77
2020/12/08 07:25:32;;;;;;;12.00;7.47;;;;;;;-0.61;69.16;100360.52;1668096;83;26388;-77
2020/12/08 07:28:00;;;;;;;11.65;7.10;;;;;;;-0.61;68.98;100360.52;1678142;83;25722;-78
2020/12/08 07:30:32;;;;;;;13.30;8.28;;;;;;;-0.63;69.00;100366.19;1681000;83;26677;-78
2020/12/08 07:33:11;;;;;;;14.07;7.72;;;;;;;-0.62;69.24;100368.33;1676405;83;25855;-78
2020/12/08 07:35:43;;;;;;;13.88;7.40;;;;;;;-0.60;69.16;100369.03;1678135;83;25755;-78
2020/12/08 07:38:10;;;;;;;12.78;8.05;;;;;;;-0.60;69.19;100381.87;1682741;83;25444;-79
2020/12/08 07:40:41;;;;;;;15.48;8.10;;;;;;;-0.61;68.99;100388.75;1678033;83;25764;-79
2020/12/08 07:43:08;;;;;;;12.93;8.50;;;;;;;-0.59;69.12;100386.11;1676688;83;25654;-78
2020/12/08 07:45:44;;;;;;;14.53;7.67;;;;;;;-0.58;69.17;100383.42;1679828;83;25710;-78
2020/12/08 07:48:18;;;;;;;16.20;7.53;;;;;;;-0.58;68.98;100391.59;1678598;83;26441;-78
2020/12/08 07:50:44;;;;;;;14.15;8.15;;;;;;;-0.57;69.21;100398.39;1678314;83;28476;-78
2020/12/08 07:53:12;;;;;;;13.43;7.65;;;;;;;-0.57;69.12;100387.66;1681980;83;25857;-79
2020/12/08 07:55:42;;;;;;;12.00;8.05;;;;;;;-0.55;69.12;100393.97;1683753;83;26431;-77
2020/12/08 07:58:10;;;;;;;13.85;8.63;;;;;;;-0.57;69.10;100386.37;1685589;83;31275;-78
2020/12/08 08:00:37;;;;;;;11.10;7.05;;;;;;;-0.54;69.09;100378.95;1682476;83;25868;-78
2020/12/08 08:03:04;;;;;;;13.88;7.37;;;;;;;-0.54;69.00;100377.67;1682809;83;26035;-78
2020/12/08 08:05:32;;;;;;;10.28;6.53;;;;;;;-0.55;68.67;100377.28;1685881;83;25544;-78
2020/12/08 08:07:59;;;;;;;13.85;8.00;;;;;;;-0.58;68.66;100389.02;1686865;83;25805;-78
2020/12/08 08:10:25;;;;;;;12.45;7.75;;;;;;;-0.60;68.79;100390.84;1681174;83;25744;-78
2020/12/08 08:12:52;;;;;;;11.55;7.28;;;;;;;-0.59;68.63;100384.36;1682814;83;25871;-78
2020/12/08 08:15:18;;;;;;;14.53;8.05;;;;;;;-0.60;68.73;100381.87;1685481;83;25788;-78
2020/12/08 08:17:45;;;;;;;12.55;7.78;;;;;;;-0.58;68.67;100392.41;1687313;83;25864;-78
2020/12/08 08:20:11;;;;;;;16.00;9.08;;;;;;;-0.55;68.92;100394.79;1679948;83;25849;-78
2020/12/08 08:22:37;;;;;;;12.25;7.17;;;;;;;-0.51;68.94;100398.02;1684461;83;25685;-78
2020/12/08 08:25:04;;;;;;;11.28;7.45;;;;;;;-0.46;68.75;100398.56;1683339;83;25640;-78
2020/12/08 08:27:30;;;;;;;14.33;7.50;;;;;;;-0.49;68.44;100394.91;1684772;83;25864;-78
2020/12/08 08:29:57;;;;;;;12.07;7.05;;;;;;;-0.51;68.61;100396.27;1683735;83;25332;-79
2020/12/08 08:32:23;;;;;;;12.63;7.12;;;;;;;-0.49;68.62;100398.75;1682763;83;25765;-79
2020/12/08 08:34:51;;;;;;;12.70;6.83;;;;;;;-0.49;68.59;100390.59;1675444;83;25687;-78
2020/12/08 08:37:17;;;;;;;11.95;6.33;;;;;;;-0.49;68.29;100391.88;1667758;84;25757;-79
2020/12/08 08:39:44;;;;;;;10.43;6.17;;;;;;;-0.50;68.40;100389.38;1664160;85;26041;-78
2020/12/08 08:42:10;;;;;;;11.97;7.55;;;;;;;-0.50;68.06;100393.23;1671608;83;25905;-78
2020/12/08 08:44:36;;;;;;;9.60;6.22;;;;;;;-0.49;68.37;100401.32;1669322;83;25786;-79
2020/12/08 08:47:03;;;;;;;12.68;7.35;;;;;;;-0.45;68.48;100402.77;1670591;83;25742;-79
2020/12/08 08:49:29;;;;;;;14.90;6.78;;;;;;;-0.42;68.45;100392.77;1666483;83;25697;-79
2020/12/08 08:51:56;;;;;;;11.90;6.78;;;;;;;-0.40;68.52;100391.77;1678148;83;25750;-79
2020/12/08 08:54:22;;;;;;;11.55;6.35;;;;;;;-0.34;68.69;100384.96;1675886;83;25610;-79
2020/12/08 08:56:48;;;;;;;13.55;8.43;;;;;;;-0.29;68.30;100377.80;1674395;84;25588;-78
2020/12/08 08:59:17;;;;;;;13.20;7.40;;;;;;;-0.27;68.35;100382.86;1671195;83;26315;-78
2020/12/08 09:01:45;;;;;;;12.35;7.45;;;;;;;-0.26;68.42;100390.45;1669276;83;26408;-78
2020/12/08 09:04:14;;;;;;;13.43;6.65;;;;;;;-0.25;68.09;100386.13;1674940;84;25666;-78
2020/12/08 09:06:41;;;;;;;16.70;10.60;;;;;;;-0.24;68.12;100387.80;1664578;84;25244;-78
2020/12/08 09:09:07;;;;;;;13.18;8.28;;;;;;;-0.26;68.25;100394.30;1653759;85;25777;-79
2020/12/08 09:11:34;;;;;;;14.80;10.48;;;;;;;-0.25;68.05;100397.69;1667111;83;25522;-78
2020/12/08 09:14:01;;;;;;;16.65;10.05;;;;;;;-0.26;68.17;100398.16;1657237;83;25858;-78
2020/12/08 09:16:27;;;;;;;17.57;9.73;;;;;;;-0.24;68.23;100405.77;1657271;83;26098;-78
2020/12/08 09:18:54;;;;;;;19.23;10.90;;;;;;;-0.22;68.08;100398.78;1656759;84;25876;-79
2020/12/08 09:21:21;;;;;;;14.55;8.65;;;;;;;-0.23;68.00;100402.27;1669444;83;26283;-79
2020/12/08 09:23:47;;;;;;;20.65;10.93;;;;;;;-0.23;67.98;100404.84;1671417;83;25896;-78
2020/12/08 09:26:13;;;;;;;17.15;11.20;;;;;;;-0.21;68.20;100404.77;1676309;83;25653;-78
2020/12/08 09:28:43;;;;;;;15.45;10.48;;;;;;;-0.15;68.34;100409.52;1680822;82;25786;-78
2020/12/08 09:31:10;;;;;;;16.55;10.20;;;;;;;-0.09;68.32;100403.98;1663371;83;25582;-78
2020/12/08 09:33:38;;;;;;;19.37;11.18;;;;;;;-0.07;68.13;100411.14;1683223;83;25896;-78
2020/12/08 09:36:04;;;;;;;14.75;8.78;;;;;;;-0.08;67.97;100413.36;1682459;83;25968;-78
2020/12/08 09:38:31;;;;;;;15.58;9.33;;;;;;;-0.10;67.96;100416.48;1681915;83;25628;-78
2020/12/08 09:41:00;;;;;;;15.05;8.68;;;;;;;-0.12;68.09;100422.98;1679349;83;25424;-78
2020/12/08 09:43:26;;;;;;;18.35;10.35;;;;;;;-0.09;68.11;100429.21;1677770;83;25892;-78
2020/12/08 09:45:54;;;;;;;14.40;9.08;;;;;;;-0.07;68.16;100418.85;1683098;83;25825;-78
2020/12/08 09:48:20;;;;;;;18.45;9.78;;;;;;;-0.09;68.26;100415.55;1683218;83;25753;-78
2020/12/08 09:50:46;;;;;;;14.73;9.03;;;;;;;-0.04;68.22;100425.90;1671064;83;25845;-78
2020/12/08 09:53:13;;;;;;;11.22;7.10;;;;;;;0.00;68.30;100431.69;1679551;82;25840;-79
2020/12/08 09:55:43;;;;;;;12.82;8.73;;;;;;;-0.01;68.01;100421.84;1676577;83;26196;-78
2020/12/08 09:58:08;;;;;;;14.00;8.58;;;;;;;-0.01;68.02;100423.13;1694744;82;25674;-79
2020/12/08 10:00:36;;;;;;;12.95;7.85;;;;;;;-0.04;68.08;100423.80;1688257;82;25810;-78
2020/12/08 10:03:02;;;;;;;16.12;9.28;;;;;;;0.01;68.28;100421.77;1684350;83;25798;-78
2020/12/08 10:05:29;;;;;;;16.50;8.85;;;;;;;0.02;68.37;100419.55;1663849;83;25762;-78
2020/12/08 10:07:56;;;;;;;11.93;8.85;;;;;;;0.06;68.45;100418.45;1681298;83;26235;-79
2020/12/08 10:10:22;;;;;;;16.02;9.70;;;;;;;0.13;68.55;100412.45;1693068;83;26397;-79
2020/12/08 10:12:53;;;;;;;15.75;9.53;;;;;;;0.16;68.43;100422.10;1683403;83;25839;-79
2020/12/08 10:15:18;;;;;;;15.53;9.93;;;;;;;0.17;68.27;100421.17;1684036;83;25733;-78
2020/12/08 10:17:45;;;;;;;15.80;8.68;;;;;;;0.14;68.28;100418.80;1687093;83;26854;-79
2020/12/08 10:20:11;;;;;;;16.30;10.08;;;;;;;0.15;68.34;100411.91;1680575;83;25994;-78
2020/12/08 10:22:40;;;;;;;16.02;8.95;;;;;;;0.15;68.32;100409.34;1676359;83;25880;-79
2020/12/08 10:25:07;;;;;;;20.35;11.50;;;;;;;0.18;68.50;100420.70;1680545;83;25722;-78
2020/12/08 10:27:33;;;;;;;20.12;11.35;;;;;;;0.17;68.34;100415.21;1686527;82;25883;-78
2020/12/08 10:30:00;;;;;;;17.55;11.78;;;;;;;0.14;68.30;100414.94;1669828;83;25899;-79
2020/12/08 10:32:26;;;;;;;23.40;14.73;;;;;;;0.11;68.35;100408.72;1685866;83;26278;-79
2020/12/08 10:34:52;;;;;;;20.90;12.40;;;;;;;0.12;68.57;100406.50;1687959;83;26527;-79
2020/12/08 10:37:20;;;;;;;16.67;10.63;;;;;;;0.13;68.54;100398.33;1683735;83;25770;-78
2020/12/08 10:39:46;;;;;;;22.20;11.05;;;;;;;0.13;68.62;100402.18;1684874;83;25776;-79
2020/12/08 10:42:14;;;;;;;22.58;13.15;;;;;;;0.13;68.63;100395.75;1692442;83;25565;-79
2020/12/08 10:44:40;;;;;;;19.75;11.35;;;;;;;0.14;68.76;100387.95;1683615;83;25685;-79
2020/12/08 10:47:07;;;;;;;17.30;10.53;;;;;;;0.15;68.71;100391.34;1684682;83;26224;-79
2020/12/08 10:49:34;;;;;;;18.55;10.23;;;;;;;0.15;68.73;100389.59;1685596;83;25840;-78
2020/12/08 10:52:00;;;;;;;20.82;11.43;;;;;;;0.14;68.70;100380.72;1689787;83;25724;-78
2020/12/08 10:54:27;;;;;;;17.80;11.43;;;;;;;0.15;68.73;100369.51;1683207;83;25329;-79
2020/12/08 10:56:55;;;;;;;17.75;10.30;;;;;;;0.14;68.78;100368.69;1684930;83;25812;-79
2020/12/08 10:59:21;;;;;;;16.80;10.18;;;;;;;0.17;68.83;100371.52;1684775;83;26016;-78
2020/12/08 11:01:48;;;;;;;20.90;11.45;;;;;;;0.16;68.86;100368.57;1674394;83;25650;-78
2020/12/08 11:04:14;;;;;;;17.32;9.90;;;;;;;0.20;68.94;100366.19;1675271;83;25867;-78
2020/12/08 11:06:45;;;;;;;19.27;11.80;;;;;;;0.19;68.72;100362.80;1674517;83;25697;-78
2020/12/08 11:09:09;;;;;;;17.12;9.98;;;;;;;0.19;68.77;100364.52;1685522;83;25867;-77
2020/12/08 11:11:38;;;;;;;22.13;11.00;;;;;;;0.18;68.67;100359.02;1686001;83;26370;-78
2020/12/08 11:14:05;;;;;;;18.87;11.40;;;;;;;0.16;68.41;100360.86;1678624;83;25822;-77
2020/12/08 11:16:32;;;;;;;20.08;12.15;;;;;;;0.16;68.41;100360.86;1683743;83;25765;-77
2020/12/08 11:18:58;;;;;;;20.20;12.15;;;;;;;0.18;68.84;100364.98;1683054;83;25894;-77
2020/12/08 11:21:27;;;;;;;21.68;12.23;;;;;;;0.20;68.87;100376.00;1685645;83;26809;-77